createdAt,value
2022-09-06T00:00:12.920Z,3.38
2022-09-06T00:00:44.352Z,10.50
2022-09-06T00:01:17.651Z,3.30
2022-09-06T00:01:49.217Z,5.23
2022-09-06T00:02:20.864Z,4.63
2022-09-06T00:02:52.306Z,6.53
2022-09-06T00:03:24.135Z,4.25
2022-09-06T00:04:15.533Z,4.43
2022-09-06T00:04:48.151Z,3.75
2022-09-06T00:05:19.960Z,3.75
2022-09-06T00:05:51.460Z,3.55
2022-09-06T00:06:22.918Z,4.88
2022-09-06T00:06:54.249Z,5.85
2022-09-06T00:07:25.693Z,3.90
2022-09-06T00:08:03.024Z,4.45
2022-09-06T00:08:34.362Z,3.22
2022-09-06T00:09:05.901Z,4.22
2022-09-06T00:09:37.352Z,4.03
2022-09-06T00:10:09.688Z,3.80
2022-09-06T00:10:42.784Z,3.70
2022-09-06T00:11:16.019Z,3.92
2022-09-06T00:11:47.333Z,4.18
2022-09-06T00:12:18.850Z,3.17
2022-09-06T00:12:50.197Z,4.07
2022-09-06T00:13:21.647Z,6.93
2022-09-06T00:13:53.003Z,4.15
2022-09-06T00:14:24.541Z,3.88
2022-09-06T00:14:56.408Z,4.13
2022-09-06T00:15:27.840Z,4.65
2022-09-06T00:16:15.063Z,4.85
2022-09-06T00:16:46.790Z,10.05
2022-09-06T00:17:18.524Z,4.47
2022-09-06T00:17:51.530Z,4.20
2022-09-06T00:18:41.980Z,5.27
2022-09-06T00:19:13.362Z,3.85
2022-09-06T00:19:44.741Z,5.00
2022-09-06T00:20:16.215Z,4.45
2022-09-06T00:20:47.798Z,4.60
2022-09-06T00:21:23.050Z,5.50
2022-09-06T00:21:54.399Z,5.13
2022-09-06T00:22:25.776Z,5.18
2022-09-06T00:23:03.216Z,4.38
2022-09-06T00:23:34.530Z,4.07
2022-09-06T00:24:06.034Z,4.50
2022-09-06T00:24:37.691Z,7.40
2022-09-06T00:25:09.638Z,6.40
2022-09-06T00:25:41.793Z,7.63
2022-09-06T00:26:14.191Z,4.50
2022-09-06T00:26:45.525Z,3.78
2022-09-06T00:27:35.448Z,3.25
2022-09-06T00:28:08.189Z,5.03
2022-09-06T00:28:39.871Z,4.45
2022-09-06T00:29:11.261Z,4.88
2022-09-06T00:29:42.759Z,7.47
2022-09-06T00:30:14.409Z,4.72
2022-09-06T00:30:45.873Z,5.53
2022-09-06T00:31:20.323Z,4.72
2022-09-06T00:31:51.772Z,4.60
2022-09-06T00:32:23.253Z,5.38
2022-09-06T00:32:55.321Z,3.83
2022-09-06T00:33:26.799Z,4.30
2022-09-06T00:33:58.159Z,4.53
2022-09-06T00:34:29.557Z,3.88
2022-09-06T00:35:00.892Z,4.23
2022-09-06T00:35:32.282Z,5.15
2022-09-06T00:36:04.268Z,16.33
2022-09-06T00:36:35.693Z,3.92
2022-09-06T00:37:07.048Z,4.00
2022-09-06T00:37:38.396Z,3.92
2022-09-06T00:38:09.733Z,5.50
2022-09-06T00:38:41.922Z,4.38
2022-09-06T00:39:13.291Z,4.18
2022-09-06T00:39:44.806Z,6.15
2022-09-06T00:40:16.681Z,3.83
2022-09-06T00:40:48.017Z,6.30
2022-09-06T00:41:19.416Z,4.80
2022-09-06T00:41:51.101Z,5.00
2022-09-06T00:42:22.674Z,4.40
2022-09-06T00:42:54.052Z,5.38
2022-09-06T00:43:25.500Z,4.03
2022-09-06T00:43:56.893Z,5.20
2022-09-06T00:44:28.352Z,6.85
2022-09-06T00:45:00.367Z,3.67
2022-09-06T00:45:32.408Z,3.53
2022-09-06T00:46:06.270Z,4.07
2022-09-06T00:46:41.909Z,4.07
2022-09-06T00:47:13.505Z,4.13
2022-09-06T00:47:45.437Z,5.40
2022-09-06T00:48:17.369Z,5.50
2022-09-06T00:49:46.307Z,3.97
2022-09-06T00:50:19.232Z,6.18
2022-09-06T00:50:59.211Z,4.32
2022-09-06T00:51:31.491Z,4.00
2022-09-06T00:52:27.052Z,4.28
2022-09-06T00:52:58.463Z,5.18
2022-09-06T00:53:31.852Z,3.92
2022-09-06T00:54:05.554Z,7.78
2022-09-06T00:54:37.712Z,4.20
2022-09-06T00:55:09.942Z,6.35
2022-09-06T00:56:32.995Z,5.47
2022-09-06T00:57:04.614Z,3.65
2022-09-06T00:58:26.885Z,5.35
2022-09-06T00:59:48.170Z,5.80
2022-09-06T01:00:20.754Z,5.15
2022-09-06T01:00:52.611Z,4.20
2022-09-06T01:01:24.035Z,4.80
2022-09-06T01:01:55.635Z,6.47
2022-09-06T01:02:27.196Z,4.63
2022-09-06T01:02:58.639Z,4.07
2022-09-06T01:03:30.009Z,4.03
2022-09-06T01:04:02.512Z,5.95
2022-09-06T01:04:34.320Z,6.53
2022-09-06T01:05:06.315Z,5.32
2022-09-06T01:05:57.092Z,4.53
2022-09-06T01:06:36.759Z,4.53
2022-09-06T01:07:25.199Z,3.53
2022-09-06T01:08:02.348Z,3.97
2022-09-06T01:09:15.719Z,4.07
2022-09-06T01:09:56.938Z,6.38
2022-09-06T01:10:37.983Z,4.30
2022-09-06T01:11:35.447Z,3.45
2022-09-06T01:12:29.443Z,4.18
2022-09-06T01:13:26.691Z,5.30
2022-09-06T01:14:25.244Z,3.65
2022-09-06T01:15:09.212Z,3.97
2022-09-06T01:16:25.716Z,4.57
2022-09-06T01:17:09.099Z,3.80
2022-09-06T01:18:29.375Z,4.38
2022-09-06T01:19:09.828Z,4.38
2022-09-06T01:20:01.256Z,4.13
2022-09-06T01:20:41.839Z,5.72
2022-09-06T01:22:43.612Z,5.97
2022-09-06T01:23:55.156Z,3.63
2022-09-06T01:24:50.250Z,6.35
2022-09-06T01:25:30.423Z,3.65
2022-09-06T01:26:20.344Z,4.18
2022-09-06T01:27:32.938Z,3.65
2022-09-06T01:28:31.660Z,4.53
2022-09-06T01:29:13.177Z,4.83
2022-09-06T01:30:10.177Z,5.13
2022-09-06T01:30:50.811Z,3.92
2022-09-06T01:31:35.263Z,4.40
2022-09-06T01:32:31.147Z,4.50
2022-09-06T01:33:51.607Z,4.25
2022-09-06T01:34:35.152Z,3.58
2022-09-06T01:35:29.923Z,4.10
2022-09-06T01:36:05.664Z,5.72
2022-09-06T01:37:08.289Z,3.22
2022-09-06T01:37:38.119Z,4.67
2022-09-06T01:38:10.522Z,5.85
2022-09-06T01:38:41.933Z,5.28
2022-09-06T01:39:24.042Z,6.20
2022-09-06T01:39:55.623Z,4.72
2022-09-06T01:40:28.378Z,4.63
2022-09-06T01:40:59.718Z,5.75
2022-09-06T01:41:32.382Z,6.97
2022-09-06T01:42:15.781Z,4.88
2022-09-06T01:42:49.147Z,4.57
2022-09-06T01:43:27.642Z,5.13
2022-09-06T01:43:59.595Z,6.13
2022-09-06T01:44:32.148Z,5.10
2022-09-06T01:46:33.292Z,6.55
2022-09-06T01:47:32.220Z,4.80
2022-09-06T01:48:24.115Z,6.07
2022-09-06T01:49:25.276Z,5.47
2022-09-06T01:50:34.891Z,6.35
2022-09-06T01:51:23.574Z,7.03
2022-09-06T01:52:13.227Z,5.80
2022-09-06T01:53:23.580Z,5.07
2022-09-06T01:54:03.748Z,5.47
2022-09-06T01:54:58.397Z,5.38
2022-09-06T01:57:00.896Z,9.43
2022-09-06T01:57:42.598Z,7.70
2022-09-06T01:58:29.964Z,6.40
2022-09-06T01:59:30.416Z,6.78
2022-09-06T02:00:14.760Z,5.82
2022-09-06T02:00:58.868Z,5.83
2022-09-06T02:02:13.473Z,5.80
2022-09-06T02:03:04.423Z,8.95
2022-09-06T02:04:46.959Z,5.93
2022-09-06T02:05:42.069Z,6.85
2022-09-06T02:06:20.175Z,7.50
2022-09-06T02:07:00.810Z,7.47
2022-09-06T02:07:35.037Z,6.47
2022-09-06T02:08:14.443Z,6.03
2022-09-06T02:08:48.927Z,6.73
2022-09-06T02:09:26.736Z,8.32
2022-09-06T02:10:27.577Z,9.45
2022-09-06T02:11:01.652Z,10.23
2022-09-06T02:11:54.556Z,8.48
2022-09-06T02:12:30.318Z,7.45
2022-09-06T02:13:05.068Z,8.30
2022-09-06T02:13:41.900Z,6.72
2022-09-06T02:14:26.222Z,7.07
2022-09-06T02:15:21.475Z,7.45
2022-09-06T02:15:58.436Z,5.97
2022-09-06T02:16:34.657Z,8.30
2022-09-06T02:17:11.760Z,6.57
2022-09-06T02:18:43.879Z,7.45
2022-09-06T02:19:23.096Z,11.15
2022-09-06T02:20:02.799Z,6.72
2022-09-06T02:20:39.822Z,6.93
2022-09-06T02:21:15.237Z,7.40
2022-09-06T02:21:47.844Z,7.28
2022-09-06T02:22:23.704Z,6.40
2022-09-06T02:22:59.397Z,7.10
2022-09-06T02:23:34.806Z,6.72
2022-09-06T02:24:11.900Z,6.50
2022-09-06T02:24:46.012Z,7.97
2022-09-06T02:25:25.164Z,6.93
2022-09-06T02:26:17.536Z,8.20
2022-09-06T02:26:49.772Z,6.70
2022-09-06T02:27:21.244Z,7.90
2022-09-06T02:27:54.082Z,6.95
2022-09-06T02:28:26.002Z,6.77
2022-09-06T02:28:57.886Z,7.40
2022-09-06T02:29:29.462Z,7.45
2022-09-06T02:30:02.973Z,7.47
2022-09-06T02:30:45.255Z,12.65
2022-09-06T02:31:38.850Z,7.57
2022-09-06T02:32:19.873Z,8.63
2022-09-06T02:33:00.693Z,7.47
2022-09-06T02:33:34.104Z,7.68
2022-09-06T02:34:06.607Z,7.88
2022-09-06T02:34:40.000Z,7.73
2022-09-06T02:35:14.788Z,7.68
2022-09-06T02:35:52.293Z,8.30
2022-09-06T02:36:42.663Z,7.72
2022-09-06T02:37:16.081Z,7.70
2022-09-06T02:37:47.466Z,7.57
2022-09-06T02:38:22.351Z,8.50
2022-09-06T02:38:54.828Z,7.00
2022-09-06T02:39:26.214Z,7.38
2022-09-06T02:39:57.796Z,7.72
2022-09-06T02:40:29.240Z,7.63
2022-09-06T02:41:01.151Z,8.63
2022-09-06T02:41:33.803Z,7.80
2022-09-06T02:42:06.555Z,7.90
2022-09-06T02:42:39.163Z,8.65
2022-09-06T02:43:10.475Z,9.80
2022-09-06T02:43:43.433Z,7.35
2022-09-06T02:44:15.245Z,7.40
2022-09-06T02:44:46.582Z,9.10
2022-09-06T02:45:17.930Z,7.95
2022-09-06T02:45:49.467Z,8.43
2022-09-06T02:46:21.107Z,8.60
2022-09-06T02:46:56.841Z,10.00
2022-09-06T02:47:28.545Z,8.57
2022-09-06T02:47:59.961Z,16.13
2022-09-06T02:48:50.041Z,8.00
2022-09-06T02:50:10.516Z,8.68
2022-09-06T02:50:41.846Z,8.57
2022-09-06T02:51:13.224Z,8.23
2022-09-06T02:51:44.617Z,7.63
2022-09-06T02:52:15.945Z,7.35
2022-09-06T02:53:00.159Z,8.75
2022-09-06T02:53:32.054Z,7.88
2022-09-06T02:54:03.547Z,8.75
2022-09-06T02:54:34.908Z,7.55
2022-09-06T02:55:07.104Z,7.75
2022-09-06T02:55:39.268Z,7.40
2022-09-06T02:56:10.862Z,9.35
2022-09-06T02:56:42.351Z,8.18
2022-09-06T02:57:14.109Z,7.70
2022-09-06T02:57:45.573Z,9.02
2022-09-06T02:58:17.122Z,8.25
2022-09-06T02:58:49.817Z,7.95
2022-09-06T02:59:21.299Z,9.02
2022-09-06T02:59:52.630Z,8.57
2022-09-06T03:00:25.033Z,7.75
2022-09-06T03:00:56.481Z,8.40
2022-09-06T03:01:27.977Z,8.30
2022-09-06T03:02:00.144Z,8.00
2022-09-06T03:02:31.824Z,7.87
2022-09-06T03:03:03.918Z,7.82
2022-09-06T03:03:35.584Z,8.65
2022-09-06T03:04:06.952Z,8.57
2022-09-06T03:04:38.425Z,8.13
2022-09-06T03:05:09.834Z,9.52
2022-09-06T03:05:41.313Z,8.05
2022-09-06T03:06:12.681Z,9.00
2022-09-06T03:07:02.717Z,7.88
2022-09-06T03:07:34.066Z,7.53
2022-09-06T03:08:06.013Z,8.63
2022-09-06T03:08:38.090Z,7.70
2022-09-06T03:09:10.372Z,8.95
2022-09-06T03:09:41.725Z,7.53
2022-09-06T03:10:13.078Z,8.60
2022-09-06T03:10:56.197Z,9.15
2022-09-06T03:11:28.201Z,7.78
2022-09-06T03:12:17.963Z,8.73
2022-09-06T03:12:49.303Z,8.18
2022-09-06T03:14:10.199Z,7.87
2022-09-06T03:15:19.030Z,7.63
2022-09-06T03:15:55.967Z,7.65
2022-09-06T03:16:27.357Z,7.32
2022-09-06T03:16:58.741Z,7.82
2022-09-06T03:17:30.131Z,8.07
2022-09-06T03:18:02.278Z,9.45
2022-09-06T03:18:33.665Z,9.00
2022-09-06T03:19:05.072Z,8.02
2022-09-06T03:19:36.410Z,7.13
2022-09-06T03:20:09.706Z,7.63
2022-09-06T03:20:41.066Z,9.07
2022-09-06T03:21:12.505Z,8.32
2022-09-06T03:21:43.850Z,8.05
2022-09-06T03:22:15.315Z,8.07
2022-09-06T03:22:46.720Z,8.00
2022-09-06T03:23:19.267Z,8.15
2022-09-06T03:23:50.921Z,8.13
2022-09-06T03:24:22.266Z,8.45
2022-09-06T03:24:53.711Z,8.05
2022-09-06T03:25:26.113Z,8.87
2022-09-06T03:25:57.667Z,7.82
2022-09-06T03:27:19.472Z,7.50
2022-09-06T03:27:51.153Z,7.97
2022-09-06T03:28:23.594Z,7.47
2022-09-06T03:28:54.987Z,8.13
2022-09-06T03:29:26.361Z,8.57
2022-09-06T03:29:57.988Z,7.70
2022-09-06T03:30:29.576Z,8.13
2022-09-06T03:31:01.017Z,8.23
2022-09-06T03:31:32.464Z,7.85
2022-09-06T03:32:03.919Z,7.95
2022-09-06T03:32:35.343Z,8.85
2022-09-06T03:33:07.421Z,7.55
2022-09-06T03:33:38.849Z,9.23
2022-09-06T03:34:11.292Z,7.82
2022-09-06T03:35:01.269Z,8.75
2022-09-06T03:35:33.155Z,7.65
2022-09-06T03:36:04.904Z,10.18
2022-09-06T03:36:36.236Z,7.63
2022-09-06T03:37:07.607Z,6.90
2022-09-06T03:37:38.981Z,7.97
2022-09-06T03:38:10.331Z,7.70
2022-09-06T03:38:41.749Z,9.93
2022-09-06T03:39:13.178Z,7.45
2022-09-06T03:39:44.616Z,9.98
2022-09-06T03:40:16.156Z,8.52
2022-09-06T03:40:48.934Z,8.55
2022-09-06T03:41:20.501Z,10.77
2022-09-06T03:41:51.945Z,7.83
2022-09-06T03:42:26.006Z,7.18
2022-09-06T03:42:57.438Z,8.60
2022-09-06T03:43:29.242Z,8.40
2022-09-06T03:44:00.831Z,7.90
2022-09-06T03:44:32.293Z,7.90
2022-09-06T03:45:04.098Z,7.43
2022-09-06T03:45:35.469Z,8.45
2022-09-06T03:46:07.018Z,8.05
2022-09-06T03:46:38.494Z,9.90
2022-09-06T03:47:09.884Z,7.80
2022-09-06T03:47:59.729Z,8.10
2022-09-06T03:48:31.278Z,8.48
2022-09-06T03:49:02.674Z,8.25
2022-09-06T03:49:34.023Z,7.97
2022-09-06T03:50:07.196Z,7.82
2022-09-06T03:50:38.538Z,7.43
2022-09-06T03:51:09.885Z,8.07
2022-09-06T03:52:29.935Z,6.47
2022-09-06T03:53:01.270Z,6.63
2022-09-06T03:53:32.640Z,7.32
2022-09-06T03:54:04.123Z,7.40
2022-09-06T03:54:36.028Z,7.85
2022-09-06T03:55:07.798Z,7.97
2022-09-06T03:55:39.649Z,8.25
2022-09-06T03:57:00.097Z,7.82
2022-09-06T03:57:31.505Z,8.55
2022-09-06T03:58:21.569Z,8.30
2022-09-06T03:59:41.905Z,9.57
2022-09-06T04:01:08.548Z,7.32
2022-09-06T04:01:40.198Z,8.27
2022-09-06T04:02:11.781Z,7.40
2022-09-06T04:02:43.201Z,7.35
2022-09-06T04:03:15.237Z,7.68
2022-09-06T04:03:46.748Z,7.47
2022-09-06T04:04:18.314Z,8.02
2022-09-06T04:04:49.718Z,7.83
2022-09-06T04:05:21.089Z,6.85
2022-09-06T04:05:52.486Z,8.30
2022-09-06T04:06:23.961Z,6.80
2022-09-06T04:06:55.348Z,8.18
2022-09-06T04:07:26.739Z,9.27
2022-09-06T04:07:58.115Z,8.38
2022-09-06T04:08:29.786Z,8.30
2022-09-06T04:09:01.413Z,8.40
2022-09-06T04:09:32.927Z,7.35
2022-09-06T04:10:04.687Z,7.77
2022-09-06T04:10:55.260Z,7.65
2022-09-06T04:11:26.779Z,8.57
2022-09-06T04:11:58.264Z,8.05
2022-09-06T04:12:48.203Z,8.35
2022-09-06T04:13:19.572Z,7.45
2022-09-06T04:13:50.979Z,7.85
2022-09-06T04:14:22.690Z,7.78
2022-09-06T04:14:54.064Z,7.60
2022-09-06T04:15:25.392Z,8.13
2022-09-06T04:15:57.271Z,7.37
2022-09-06T04:16:28.648Z,7.95
2022-09-06T04:17:00.125Z,7.25
2022-09-06T04:17:31.550Z,9.00
2022-09-06T04:18:07.209Z,9.02
2022-09-06T04:18:40.681Z,8.25
2022-09-06T04:19:12.148Z,8.82
2022-09-06T04:19:43.477Z,8.90
2022-09-06T04:20:15.812Z,8.52
2022-09-06T04:20:52.271Z,8.43
2022-09-06T04:21:23.606Z,7.50
2022-09-06T04:21:55.226Z,7.78
2022-09-06T04:22:26.617Z,8.13
2022-09-06T04:22:57.950Z,8.55
2022-09-06T04:23:30.301Z,8.13
2022-09-06T04:24:01.847Z,7.60
2022-09-06T04:24:33.181Z,8.13
2022-09-06T04:26:13.076Z,8.45
2022-09-06T04:26:44.427Z,7.95
2022-09-06T04:27:15.751Z,7.53
2022-09-06T04:27:47.283Z,7.82
2022-09-06T04:28:19.217Z,9.65
2022-09-06T04:28:50.553Z,8.85
2022-09-06T04:29:21.912Z,8.43
2022-09-06T04:29:53.330Z,7.88
2022-09-06T04:30:24.875Z,8.90
2022-09-06T04:31:04.585Z,8.02
2022-09-06T04:31:54.945Z,8.40
2022-09-06T04:32:26.571Z,7.38
2022-09-06T04:32:57.931Z,8.70
2022-09-06T04:33:30.636Z,7.32
2022-09-06T04:34:50.957Z,7.85
2022-09-06T04:35:22.564Z,9.52
2022-09-06T04:35:56.447Z,7.60
2022-09-06T04:36:28.031Z,7.82
2022-09-06T04:36:59.404Z,8.07
2022-09-06T04:37:30.756Z,7.15
2022-09-06T04:38:03.863Z,7.90
2022-09-06T04:38:41.918Z,7.37
2022-09-06T04:39:32.628Z,7.20
2022-09-06T04:40:04.594Z,6.22
2022-09-06T04:40:35.963Z,7.03
2022-09-06T04:41:09.684Z,7.68
2022-09-06T04:41:41.073Z,7.85
2022-09-06T04:42:12.740Z,7.22
2022-09-06T04:42:44.078Z,7.07
2022-09-06T04:43:15.883Z,8.35
2022-09-06T04:44:06.104Z,6.68
2022-09-06T04:44:37.449Z,9.27
2022-09-06T04:45:09.379Z,5.85
2022-09-06T04:45:41.457Z,7.40
2022-09-06T04:46:20.939Z,6.68
2022-09-06T04:47:07.515Z,8.68
2022-09-06T04:47:40.763Z,7.45
2022-09-06T04:48:12.298Z,6.53
2022-09-06T04:48:43.849Z,6.63
2022-09-06T04:49:15.433Z,6.47
2022-09-06T04:49:49.358Z,6.22
2022-09-06T04:50:20.761Z,6.70
2022-09-06T04:50:52.143Z,6.45
2022-09-06T04:51:24.864Z,6.60
2022-09-06T04:52:14.763Z,9.00
2022-09-06T04:52:46.089Z,6.20
2022-09-06T04:53:35.818Z,7.10
2022-09-06T04:54:07.217Z,5.93
2022-09-06T04:54:38.655Z,6.70
2022-09-06T04:55:10.020Z,6.72
2022-09-06T04:55:41.375Z,6.72
2022-09-06T04:56:22.223Z,6.63
2022-09-06T04:56:53.571Z,6.03
2022-09-06T04:57:47.499Z,6.35
2022-09-06T04:58:20.942Z,6.50
2022-09-06T04:58:54.135Z,7.63
2022-09-06T04:59:25.503Z,6.10
2022-09-06T04:59:56.860Z,6.43
2022-09-06T05:00:47.459Z,7.18
2022-09-06T05:01:19.145Z,7.25
2022-09-06T05:01:50.649Z,5.70
2022-09-06T05:02:22.044Z,6.13
2022-09-06T05:02:53.471Z,6.38
2022-09-06T05:03:24.866Z,5.93
2022-09-06T05:03:57.046Z,6.25
2022-09-06T05:04:28.743Z,5.53
2022-09-06T05:05:00.087Z,6.80
2022-09-06T05:05:31.435Z,6.47
2022-09-06T05:06:06.966Z,9.07
2022-09-06T05:06:39.968Z,6.32
2022-09-06T05:07:11.373Z,5.82
2022-09-06T05:07:42.753Z,6.30
2022-09-06T05:08:14.941Z,5.85
2022-09-06T05:08:46.728Z,5.63
2022-09-06T05:09:18.212Z,6.82
2022-09-06T05:09:49.709Z,5.70
2022-09-06T05:10:22.608Z,11.13
2022-09-06T05:10:53.962Z,6.70
2022-09-06T05:12:02.427Z,6.57
2022-09-06T05:12:33.736Z,6.20
2022-09-06T05:13:05.076Z,5.80
2022-09-06T05:13:37.024Z,7.07
2022-09-06T05:14:08.360Z,5.90
2022-09-06T05:14:39.722Z,6.40
2022-09-06T05:15:11.300Z,6.97
2022-09-06T05:15:42.634Z,6.70
2022-09-06T05:16:14.381Z,5.95
2022-09-06T05:16:46.592Z,6.05
2022-09-06T05:17:18.068Z,6.25
2022-09-06T05:18:10.073Z,6.05
2022-09-06T05:18:44.188Z,6.28
2022-09-06T05:19:16.675Z,6.10
2022-09-06T05:20:06.610Z,6.03
2022-09-06T05:20:37.975Z,6.28
2022-09-06T05:21:09.527Z,6.18
2022-09-06T05:21:41.023Z,6.57
2022-09-06T05:22:12.440Z,7.45
2022-09-06T05:22:43.894Z,6.03
2022-09-06T05:23:15.236Z,6.35
2022-09-06T05:23:46.593Z,6.05
2022-09-06T05:24:18.021Z,6.70
2022-09-06T05:24:49.405Z,6.30
2022-09-06T05:25:21.072Z,6.70
2022-09-06T05:25:53.013Z,6.15
2022-09-06T05:26:24.419Z,7.22
2022-09-06T05:26:55.760Z,7.43
2022-09-06T05:27:27.094Z,6.90
2022-09-06T05:27:58.473Z,7.80
2022-09-06T05:28:29.947Z,5.65
2022-09-06T05:29:01.349Z,7.10
2022-09-06T05:29:33.027Z,6.72
2022-09-06T05:30:04.791Z,6.90
2022-09-06T05:30:36.194Z,7.05
2022-09-06T05:31:10.340Z,7.25
2022-09-06T05:31:41.786Z,8.35
2022-09-06T05:32:13.326Z,6.88
2022-09-06T05:32:44.772Z,6.75
2022-09-06T05:33:21.363Z,6.70
2022-09-06T05:33:54.115Z,7.15
2022-09-06T05:34:25.674Z,7.07
2022-09-06T05:34:57.046Z,6.63
2022-09-06T05:35:28.385Z,6.20
2022-09-06T05:35:59.888Z,6.55
2022-09-06T05:36:31.641Z,9.75
2022-09-06T05:37:21.723Z,6.22
2022-09-06T05:37:53.181Z,5.65
2022-09-06T05:38:28.123Z,6.03
2022-09-06T05:39:01.020Z,6.35
2022-09-06T05:39:32.355Z,6.47
2022-09-06T05:40:03.940Z,7.53
2022-09-06T05:40:35.435Z,7.20
2022-09-06T05:41:06.765Z,5.57
2022-09-06T05:41:38.224Z,6.70
2022-09-06T05:42:09.564Z,5.78
2022-09-06T05:42:41.108Z,6.22
2022-09-06T05:43:31.732Z,7.05
2022-09-06T05:44:03.724Z,5.80
2022-09-06T05:44:36.856Z,6.97
2022-09-06T05:45:27.198Z,5.80
2022-09-06T05:45:59.023Z,6.43
2022-09-06T05:46:30.488Z,6.68
2022-09-06T05:47:02.053Z,6.47
2022-09-06T05:47:35.337Z,6.65
2022-09-06T05:48:06.671Z,6.13
2022-09-06T05:48:38.465Z,8.50
2022-09-06T05:49:10.417Z,6.43
2022-09-06T05:49:41.758Z,6.88
2022-09-06T05:50:13.442Z,7.22
2022-09-06T05:50:44.803Z,6.70
2022-09-06T05:51:16.251Z,6.53
2022-09-06T05:52:25.665Z,6.10
2022-09-06T05:52:57.192Z,5.53
2022-09-06T05:53:37.431Z,7.18
2022-09-06T05:54:11.087Z,7.65
2022-09-06T05:54:42.432Z,6.30
2022-09-06T05:55:13.768Z,6.05
2022-09-06T05:55:45.915Z,6.97
2022-09-06T05:56:17.744Z,6.35
2022-09-06T05:56:49.547Z,6.68
2022-09-06T05:57:21.027Z,7.35
2022-09-06T05:57:52.401Z,6.28
2022-09-06T05:58:23.826Z,7.50
2022-09-06T05:58:55.396Z,11.88
2022-09-06T05:59:26.905Z,7.18
2022-09-06T05:59:58.464Z,6.47
2022-09-06T06:00:29.979Z,6.65
2022-09-06T06:01:06.337Z,7.43
2022-09-06T06:01:46.804Z,8.10
2022-09-06T06:02:18.283Z,7.85
2022-09-06T06:02:49.967Z,8.00
2022-09-06T06:03:21.603Z,6.15
2022-09-06T06:03:55.196Z,7.37
2022-09-06T06:04:26.615Z,6.75
2022-09-06T06:04:58.773Z,8.35
2022-09-06T06:05:30.180Z,7.57
2022-09-06T06:06:01.535Z,7.20
2022-09-06T06:06:34.424Z,6.68
2022-09-06T06:07:55.573Z,6.70
2022-09-06T06:08:27.211Z,7.30
2022-09-06T06:08:59.528Z,8.80
2022-09-06T06:09:30.855Z,6.37
2022-09-06T06:10:02.244Z,7.03
2022-09-06T06:10:38.512Z,6.15
2022-09-06T06:11:29.519Z,7.28
2022-09-06T06:12:00.842Z,6.85
2022-09-06T06:12:51.080Z,6.47
2022-09-06T06:13:22.404Z,7.35
2022-09-06T06:13:54.628Z,5.90
2022-09-06T06:14:44.433Z,7.38
2022-09-06T06:15:15.880Z,6.70
2022-09-06T06:15:47.461Z,6.93
2022-09-06T06:16:38.591Z,7.30
2022-09-06T06:17:10.016Z,7.28
2022-09-06T06:17:41.387Z,8.98
2022-09-06T06:18:12.723Z,6.80
2022-09-06T06:18:47.632Z,7.40
2022-09-06T06:19:40.418Z,9.40
2022-09-06T06:20:11.797Z,7.47
2022-09-06T06:20:52.134Z,9.27
2022-09-06T06:21:26.137Z,8.40
2022-09-06T06:21:58.320Z,7.50
2022-09-06T06:22:48.273Z,8.45
2022-09-06T06:23:19.621Z,9.25
2022-09-06T06:24:08.621Z,8.88
2022-09-06T06:24:39.931Z,9.30
2022-09-06T06:25:30.868Z,7.25
2022-09-06T06:26:02.246Z,7.35
2022-09-06T06:26:35.903Z,9.20
2022-09-06T06:27:07.220Z,8.98
2022-09-06T06:27:38.673Z,9.13
2022-09-06T06:28:09.995Z,9.33
2022-09-06T06:28:41.416Z,11.18
2022-09-06T06:29:12.758Z,8.23
2022-09-06T06:30:02.598Z,11.45
2022-09-06T06:30:54.243Z,8.45
2022-09-06T06:31:25.618Z,7.57
2022-09-06T06:31:57.048Z,7.63
2022-09-06T06:32:28.535Z,9.48
2022-09-06T06:33:00.413Z,8.98
2022-09-06T06:33:32.474Z,8.90
2022-09-06T06:34:04.085Z,9.83
2022-09-06T06:34:35.395Z,9.15
2022-09-06T06:35:07.024Z,8.65
2022-09-06T06:35:40.111Z,8.65
2022-09-06T06:36:14.392Z,7.60
2022-09-06T06:36:45.695Z,8.10
2022-09-06T06:37:17.024Z,7.68
2022-09-06T06:37:48.342Z,13.70
2022-09-06T06:38:19.661Z,9.90
2022-09-06T06:38:55.317Z,8.95
2022-09-06T06:39:26.723Z,9.07
2022-09-06T06:39:58.873Z,7.50
2022-09-06T06:40:30.926Z,9.82
2022-09-06T06:41:20.891Z,10.68
2022-09-06T06:41:52.907Z,10.02
2022-09-06T06:42:24.266Z,9.88
2022-09-06T06:42:55.692Z,11.80
2022-09-06T06:43:28.255Z,9.52
2022-09-06T06:44:53.263Z,8.85
2022-09-06T06:45:24.676Z,9.00
2022-09-06T06:45:56.144Z,9.45
2022-09-06T06:46:35.648Z,9.95
2022-09-06T06:47:07.093Z,10.43
2022-09-06T06:47:38.406Z,11.38
2022-09-06T06:48:09.718Z,9.88
2022-09-06T06:48:59.963Z,11.27
2022-09-06T06:49:31.335Z,9.80
2022-09-06T06:50:02.666Z,10.07
2022-09-06T06:50:34.035Z,9.43
2022-09-06T06:51:24.011Z,9.10
2022-09-06T06:51:55.334Z,9.68
2022-09-06T06:52:26.695Z,9.05
2022-09-06T06:53:47.928Z,8.45
2022-09-06T06:55:08.909Z,10.07
2022-09-06T06:55:46.588Z,9.30
2022-09-06T06:56:35.163Z,18.33
2022-09-06T06:57:06.819Z,12.90
2022-09-06T06:57:38.173Z,12.57
2022-09-06T06:58:09.491Z,10.32
2022-09-06T06:58:41.187Z,9.82
2022-09-06T06:59:14.399Z,10.32
2022-09-06T06:59:45.823Z,11.15
2022-09-06T07:00:17.323Z,9.35
2022-09-06T07:00:48.714Z,11.18
2022-09-06T07:01:22.023Z,10.27
2022-09-06T07:01:53.646Z,10.70
2022-09-06T07:02:25.156Z,9.68
2022-09-06T07:02:57.071Z,10.50
2022-09-06T07:03:28.386Z,10.65
2022-09-06T07:03:59.911Z,11.30
2022-09-06T07:04:31.250Z,10.57
2022-09-06T07:08:05.424Z,11.05
2022-09-06T07:08:39.708Z,11.23
2022-09-06T07:09:11.022Z,10.07
2022-09-06T07:10:34.479Z,10.77
2022-09-06T07:11:07.419Z,10.60
2022-09-06T07:11:57.023Z,10.57
2022-09-06T07:12:28.344Z,11.23
2022-09-06T07:12:59.873Z,12.10
2022-09-06T07:13:31.813Z,10.63
2022-09-06T07:14:03.139Z,11.80
2022-09-06T07:14:34.455Z,11.13
2022-09-06T07:15:06.157Z,10.30
2022-09-06T07:15:37.484Z,10.80
2022-09-06T07:16:10.536Z,11.05
2022-09-06T07:16:42.562Z,12.85
2022-09-06T07:18:02.554Z,11.57
2022-09-06T07:18:52.538Z,15.23
2022-09-06T07:20:16.242Z,13.93
2022-09-06T07:21:39.375Z,11.32
2022-09-06T07:22:13.630Z,13.37
2022-09-06T07:22:45.208Z,12.55
2022-09-06T07:24:09.170Z,14.93
2022-09-06T07:24:41.147Z,14.02
2022-09-06T07:25:20.378Z,14.73
2022-09-06T07:26:11.141Z,14.20
2022-09-06T07:28:05.738Z,15.20
2022-09-06T07:28:37.240Z,15.63
2022-09-06T07:29:08.810Z,13.40
2022-09-06T07:29:40.116Z,13.05
2022-09-06T07:30:11.889Z,13.77
2022-09-06T07:30:43.216Z,13.25
2022-09-06T07:32:13.208Z,14.43
2022-09-06T07:32:44.604Z,15.65
2022-09-06T07:33:34.377Z,14.25
2022-09-06T07:34:05.750Z,13.85
2022-09-06T07:34:39.471Z,14.15
2022-09-06T07:35:13.723Z,13.67
2022-09-06T07:35:55.328Z,14.05
2022-09-06T07:36:26.830Z,13.38
2022-09-06T07:36:58.227Z,14.10
2022-09-06T07:37:29.532Z,14.52
2022-09-06T07:38:01.862Z,14.13
2022-09-06T07:38:34.287Z,18.27
2022-09-06T07:39:05.676Z,13.00
2022-09-06T07:39:37.115Z,14.25
2022-09-06T07:40:09.681Z,14.35
2022-09-06T07:40:41.118Z,15.27
2022-09-06T07:41:12.439Z,14.30
2022-09-06T07:42:02.292Z,12.02
2022-09-06T07:42:36.424Z,16.20
2022-09-06T07:43:08.054Z,11.32
2022-09-06T07:43:39.430Z,15.73
2022-09-06T07:44:10.746Z,13.10
2022-09-06T07:44:42.074Z,12.88
2022-09-06T07:45:13.402Z,12.20
2022-09-06T07:46:33.766Z,12.73
2022-09-06T07:47:59.670Z,10.88
2022-09-06T07:48:33.358Z,12.45
2022-09-06T07:49:05.769Z,16.52
2022-09-06T07:49:37.202Z,12.98
2022-09-06T07:51:21.053Z,11.75
2022-09-06T07:51:52.368Z,10.30
2022-09-06T07:53:24.780Z,12.73
2022-09-06T07:54:26.141Z,11.50
2022-09-06T07:54:53.843Z,10.70
2022-09-06T07:55:25.999Z,11.38
2022-09-06T07:57:05.062Z,13.77
2022-09-06T07:57:36.399Z,11.85
2022-09-06T07:58:07.722Z,12.02
2022-09-06T07:58:40.308Z,10.82
2022-09-06T07:59:11.635Z,11.82
2022-09-06T07:59:43.105Z,15.70
2022-09-06T08:00:14.615Z,10.82
2022-09-06T08:00:46.025Z,12.35
2022-09-06T08:01:37.323Z,11.35
2022-09-06T08:02:08.682Z,11.50
2022-09-06T08:02:40.828Z,11.55
2022-09-06T08:03:12.940Z,13.05
2022-09-06T08:03:44.981Z,13.60
2022-09-06T08:04:16.296Z,11.25
2022-09-06T08:04:51.447Z,11.32
2022-09-06T08:07:40.125Z,10.75
2022-09-06T08:09:06.313Z,10.73
2022-09-06T08:09:37.670Z,9.90
2022-09-06T08:10:09.220Z,10.40
2022-09-06T08:10:40.644Z,10.45
2022-09-06T08:11:11.968Z,9.32
2022-09-06T08:11:43.450Z,10.70
2022-09-06T08:12:14.750Z,10.70
2022-09-06T08:12:46.211Z,10.30
2022-09-06T08:13:17.520Z,10.00
2022-09-06T08:13:54.571Z,12.82
2022-09-06T08:14:25.886Z,10.13
2022-09-06T08:15:15.973Z,10.13
2022-09-06T08:15:47.303Z,10.57
2022-09-06T08:16:19.971Z,11.02
2022-09-06T08:16:51.475Z,12.60
2022-09-06T08:17:22.893Z,10.00
2022-09-06T08:17:54.209Z,10.27
2022-09-06T08:18:25.785Z,9.75
2022-09-06T08:18:59.534Z,10.85
2022-09-06T08:19:30.907Z,10.23
2022-09-06T08:20:03.786Z,10.52
2022-09-06T08:20:35.090Z,11.02
2022-09-06T08:21:14.600Z,10.35
2022-09-06T08:21:45.923Z,11.32
2022-09-06T08:22:17.256Z,11.52
2022-09-06T08:22:48.576Z,10.75
2022-09-06T08:23:19.994Z,9.50